Time;durP1;ratioP1;P1;durP2;ratioP2;P2;SDS_P1;SDS_P2;PMS_P1;PMS_P2;Temp;Humidity;BMP_temperature;BMP_pressure;BME280_temperature;BME280_humidity;BME280_pressure;Samples;Min_cycle;Max_cycle;Signal;HPM_P1;HPM_P2
2021/08/13 00:00:12;;;;;;;30.17;15.98;;;;;;;21.63;72.96;101910.69;5100752;27;20776;-62
2021/08/13 00:02:38;;;;;;;27.30;16.45;;;;;;;21.21;74.97;101909.69;5100554;27;20075;-62
2021/08/13 00:05:05;;;;;;;25.83;17.52;;;;;;;21.31;74.69;101910.19;5095126;27;20062;-61
2021/08/13 00:07:32;;;;;;;26.30;16.85;;;;;;;20.97;76.12;101913.53;5104508;27;20571;-62
2021/08/13 00:09:58;;;;;;;27.70;16.38;;;;;;;21.10;75.37;101911.00;5108331;27;20071;-62
2021/08/13 00:12:24;;;;;;;23.27;14.98;;;;;;;20.95;76.14;101910.22;5095260;27;20062;-61
2021/08/13 00:14:51;;;;;;;28.02;16.63;;;;;;;21.35;74.24;101899.16;5111260;27;20130;-62
2021/08/13 00:17:17;;;;;;;27.48;17.27;;;;;;;21.55;74.28;101910.03;5091162;27;20048;-60
2021/08/13 00:19:44;;;;;;;30.60;16.58;;;;;;;21.63;73.26;101907.22;5106625;27;20073;-61
2021/08/13 00:22:10;;;;;;;27.85;16.52;;;;;;;21.42;74.33;101894.69;5096417;27;20075;-62
2021/08/13 00:24:37;;;;;;;26.83;15.75;;;;;;;21.37;73.48;101905.13;5107228;27;20154;-62
2021/08/13 00:27:03;;;;;;;25.80;16.10;;;;;;;21.02;74.84;101903.13;5084378;28;20078;-62
2021/08/13 00:29:30;;;;;;;26.70;16.88;;;;;;;20.95;76.39;101902.22;5102833;27;20540;-62
2021/08/13 00:31:56;;;;;;;28.73;17.10;;;;;;;20.94;76.32;101900.59;5101142;27;20155;-62
2021/08/13 00:34:22;;;;;;;25.95;15.25;;;;;;;21.12;74.40;101900.16;5101885;27;20078;-61
2021/08/13 00:36:49;;;;;;;25.63;15.80;;;;;;;20.66;75.24;101913.78;5105116;27;20059;-62
2021/08/13 00:39:15;;;;;;;25.80;15.07;;;;;;;20.55;76.76;101910.56;5102699;27;20075;-62
2021/08/13 00:41:42;;;;;;;23.08;16.05;;;;;;;20.54;76.69;101914.25;5099893;27;20551;-62
2021/08/13 00:44:08;;;;;;;27.38;15.30;;;;;;;20.93;75.03;101912.25;5103375;27;20143;-62
2021/08/13 00:46:35;;;;;;;25.35;16.52;;;;;;;21.02;74.63;101913.81;5096334;27;20048;-61
2021/08/13 00:49:02;;;;;;;27.02;16.23;;;;;;;20.83;75.52;101920.56;5110751;27;20055;-62
2021/08/13 00:51:28;;;;;;;26.38;16.00;;;;;;;20.37;76.72;101919.97;5094526;27;20585;-62
2021/08/13 00:53:55;;;;;;;28.45;16.85;;;;;;;20.49;76.59;101918.50;5104010;27;20440;-60
2021/08/13 00:56:23;;;;;;;26.73;16.02;;;;;;;20.93;74.73;101925.59;5093533;27;20482;-61
2021/08/13 00:58:49;;;;;;;24.70;16.10;;;;;;;21.13;73.40;101923.97;5106982;27;20051;-61
2021/08/13 01:01:16;;;;;;;28.80;16.88;;;;;;;21.24;72.84;101921.81;5098877;27;20366;-62
2021/08/13 01:03:43;;;;;;;25.42;16.85;;;;;;;20.67;74.00;101923.44;5108249;27;20148;-61
2021/08/13 01:06:12;;;;;;;27.02;16.63;;;;;;;19.71;78.80;101934.75;5103015;27;20086;-59
2021/08/13 01:08:40;;;;;;;26.48;16.50;;;;;;;19.36;82.11;101938.84;5097042;27;20075;-62
2021/08/13 01:11:34;;;;;;;29.90;16.95;;;;;;;19.83;81.44;101939.66;5100945;27;20146;-63
2021/08/13 01:14:16;;;;;;;28.23;17.65;;;;;;;20.41;78.29;101939.91;5082537;27;20051;-61
2021/08/13 01:16:46;;;;;;;29.05;17.23;;;;;;;20.85;75.45;101955.03;5100380;28;20058;-62
2021/08/13 01:19:26;;;;;;;28.63;17.23;;;;;;;21.00;75.72;101955.84;5098862;27;20082;-61
2021/08/13 01:22:03;;;;;;;29.55;17.35;;;;;;;20.64;77.19;101959.31;5099803;27;20047;-62
2021/08/13 01:24:32;;;;;;;28.58;17.42;;;;;;;20.94;76.82;101953.94;5094455;27;20146;-62
2021/08/13 01:27:07;;;;;;;27.25;17.67;;;;;;;21.29;75.08;101951.44;5101665;27;20049;-62
2021/08/13 01:29:58;;;;;;;29.88;18.27;;;;;;;21.31;74.35;101949.41;5098470;27;20166;-61
2021/08/13 01:32:37;;;;;;;33.65;17.95;;;;;;;20.54;77.34;101940.91;5098417;28;20554;-62
2021/08/13 01:35:07;;;;;;;28.65;17.00;;;;;;;20.79;77.73;101947.78;5098648;27;20146;-61
2021/08/13 01:37:35;;;;;;;26.58;16.70;;;;;;;21.21;74.20;101947.03;5098371;27;20126;-62
2021/08/13 01:40:03;;;;;;;;;;;;;;;20.33;78.65;101951.47;5105103;27;20162;-62
2021/08/13 01:42:33;;;;;;;30.08;17.92;;;;;;;20.20;81.33;101962.75;5095198;27;20010;-62
2021/08/13 01:45:04;;;;;;;31.85;18.40;;;;;;;20.72;79.26;101956.53;5104580;27;20055;-62
2021/08/13 01:47:32;;;;;;;32.67;19.23;;;;;;;20.13;81.51;101962.69;5099668;27;20142;-62
2021/08/13 01:49:59;;;;;;;38.60;20.23;;;;;;;20.12;82.59;101954.88;5101268;27;20138;-63
2021/08/13 01:52:27;;;;;;;36.58;19.02;;;;;;;20.23;81.23;101953.56;5094115;27;20554;-63
2021/08/13 01:54:54;;;;;;;29.05;19.25;;;;;;;20.47;80.68;101952.50;5103971;27;20082;-62
2021/08/13 01:57:24;;;;;;;32.80;20.33;;;;;;;20.07;82.01;101958.09;5103638;27;20040;-62
2021/08/13 01:59:52;;;;;;;37.33;21.00;;;;;;;20.19;81.24;101953.13;5097610;27;20070;-62
2021/08/13 02:02:19;;;;;;;29.85;19.13;;;;;;;20.65;79.75;101947.63;5103399;27;20142;-62
2021/08/13 02:04:48;;;;;;;37.40;19.47;;;;;;;20.76;76.54;101949.00;5092765;27;20105;-62
2021/08/13 02:07:16;;;;;;;35.85;19.70;;;;;;;19.68;83.00;101950.22;5102403;27;20244;-62
2021/08/13 02:09:43;;;;;;;32.47;19.77;;;;;;;20.17;80.45;101949.81;5096076;27;20149;-62
2021/08/13 02:12:10;;;;;;;33.38;19.27;;;;;;;20.67;77.96;101952.78;5103456;27;20143;-62
2021/08/13 02:14:38;;;;;;;34.30;19.40;;;;;;;19.89;81.26;101952.25;5100735;27;20075;-62
2021/08/13 02:17:10;;;;;;;31.88;18.65;;;;;;;20.21;80.67;101944.94;5104122;28;20462;-62
2021/08/13 02:19:50;;;;;;;33.47;19.98;;;;;;;20.31;79.61;101946.34;5094969;27;20051;-62
2021/08/13 02:22:17;;;;;;;30.73;18.75;;;;;;;20.44;78.62;101935.00;5095400;27;20166;-62
2021/08/13 02:24:43;;;;;;;29.75;18.75;;;;;;;19.88;80.21;101946.09;5100648;27;20451;-61
2021/08/13 02:27:10;;;;;;;33.22;19.92;;;;;;;20.42;78.60;101941.53;5095166;27;20044;-61
2021/08/13 02:29:36;;;;;;;37.25;20.05;;;;;;;20.30;77.62;101949.19;5106109;27;20166;-62
2021/08/13 02:32:03;;;;;;;32.50;19.27;;;;;;;19.55;81.95;101950.84;5092346;27;20062;-62
2021/08/13 02:34:30;;;;;;;34.58;20.10;;;;;;;20.37;78.44;101939.44;5099780;27;20573;-62
2021/08/13 02:37:20;;;;;;;35.75;19.48;;;;;;;19.48;81.59;101949.91;5100750;27;20217;-62
2021/08/13 02:39:53;;;;;;;30.65;18.77;;;;;;;18.98;84.89;101943.25;5100617;27;20155;-61
2021/08/13 02:42:26;;;;;;;34.88;19.25;;;;;;;18.75;86.79;101947.47;5103156;27;20063;-62
2021/08/13 02:44:59;;;;;;;33.40;18.60;;;;;;;19.51;82.60;101937.06;5097284;27;20075;-61
2021/08/13 02:47:29;;;;;;;34.65;20.48;;;;;;;19.70;82.97;101933.09;5102837;27;20073;-62
2021/08/13 02:50:06;;;;;;;34.65;19.85;;;;;;;19.75;83.51;101936.06;5090643;27;20048;-62
2021/08/13 02:52:46;;;;;;;31.55;19.27;;;;;;;19.27;83.77;101939.91;5103049;27;20873;-62
2021/08/13 02:55:17;;;;;;;31.92;19.45;;;;;;;19.30;84.47;101935.06;5094994;28;20051;-62
2021/08/13 02:57:47;;;;;;;34.22;19.23;;;;;;;19.11;85.41;101936.34;5103292;27;20053;-63
2021/08/13 03:00:14;;;;;;;31.85;18.85;;;;;;;19.00;86.64;101927.94;5089886;28;20559;-62
2021/08/13 03:02:45;;;;;;;31.50;19.35;;;;;;;19.19;86.89;101922.19;5097953;28;20070;-62
2021/08/13 03:05:15;;;;;;;34.00;18.27;;;;;;;19.17;87.42;101926.84;5098996;28;20624;-62
2021/08/13 03:07:41;;;;;;;30.05;18.15;;;;;;;20.19;80.87;101915.00;5099032;27;20135;-62
2021/08/13 03:10:09;;;;;;;28.38;17.77;;;;;;;19.68;82.51;101926.28;5098806;28;20181;-61
2021/08/13 03:12:38;;;;;;;32.45;19.13;;;;;;;19.56;82.06;101920.56;5097712;27;20071;-62
2021/08/13 03:15:05;;;;;;;32.92;18.58;;;;;;;19.20;85.43;101913.19;5094108;28;20442;-61
2021/08/13 03:17:32;;;;;;;36.88;20.05;;;;;;;19.83;82.78;101907.72;5099448;28;20054;-63
2021/08/13 03:20:00;;;;;;;31.40;18.40;;;;;;;20.50;77.78;101899.66;5102046;27;20146;-62
2021/08/13 03:22:27;;;;;;;33.05;18.70;;;;;;;19.35;82.31;101905.28;5101103;27;20139;-62
2021/08/13 03:24:53;;;;;;;34.50;18.67;;;;;;;18.98;85.37;101906.03;5107186;27;20086;-60
2021/08/13 03:27:20;;;;;;;30.92;18.25;;;;;;;19.24;83.49;101895.88;5107279;27;20101;-62
2021/08/13 03:29:47;;;;;;;29.13;17.42;;;;;;;19.42;83.79;101894.72;5092658;27;20052;-63
2021/08/13 03:32:17;;;;;;;30.38;18.60;;;;;;;19.86;80.76;101902.84;5107304;27;20094;-62
2021/08/13 03:34:43;;;;;;;30.90;18.02;;;;;;;19.29;83.23;101893.50;5099273;27;20146;-62
2021/08/13 03:37:10;;;;;;;34.95;18.42;;;;;;;18.80;85.76;101893.84;5109031;27;20066;-62
2021/08/13 03:39:36;;;;;;;26.77;16.50;;;;;;;18.70;85.78;101904.66;5098202;27;20548;-61
2021/08/13 03:42:03;;;;;;;31.58;18.33;;;;;;;18.51;86.84;101905.06;5103507;27;20043;-62
2021/08/13 03:44:29;;;;;;;39.90;20.30;;;;;;;18.76;86.93;101908.44;5101748;27;20130;-62
2021/08/13 03:46:56;;;;;;;34.40;19.10;;;;;;;18.62;87.83;101899.38;5100905;27;20146;-62
2021/08/13 03:49:22;;;;;;;35.58;19.85;;;;;;;18.48;89.34;101908.06;5104286;27;20158;-61
2021/08/13 03:51:49;;;;;;;39.08;21.67;;;;;;;18.44;91.01;101906.75;5098953;27;20165;-62
2021/08/13 03:54:15;;;;;;;38.53;21.90;;;;;;;18.48;91.52;101910.72;5104594;27;20150;-62
2021/08/13 03:56:42;;;;;;;33.50;20.80;;;;;;;18.66;90.56;101915.78;5093222;27;20142;-61
2021/08/13 03:59:08;;;;;;;37.05;21.40;;;;;;;18.76;90.42;101911.09;5103708;27;20082;-60
2021/08/13 04:01:36;;;;;;;34.30;19.08;;;;;;;18.98;87.79;101919.31;5103179;27;20219;-62
2021/08/13 04:04:03;;;;;;;38.40;20.10;;;;;;;18.99;87.38;101918.31;5098688;27;20587;-63
2021/08/13 04:06:29;;;;;;;37.05;20.30;;;;;;;19.17;86.38;101914.38;5102624;27;20135;-62
2021/08/13 04:08:56;;;;;;;35.53;19.40;;;;;;;19.90;82.73;101917.47;5101417;27;20146;-62
2021/08/13 04:11:22;;;;;;;37.80;20.48;;;;;;;19.44;84.03;101916.66;5095954;27;20142;-61
2021/08/13 04:13:49;;;;;;;32.70;18.77;;;;;;;19.40;82.73;101910.88;5097653;27;20131;-62
2021/08/13 04:16:15;;;;;;;34.67;20.55;;;;;;;19.77;82.74;101911.91;5106193;27;20067;-62
2021/08/13 04:18:42;;;;;;;37.92;20.90;;;;;;;19.69;83.31;101904.00;5105211;27;20043;-63
2021/08/13 04:21:09;;;;;;;37.58;19.50;;;;;;;19.41;82.93;101901.91;5100115;27;20142;-62
2021/08/13 04:23:35;;;;;;;39.47;20.85;;;;;;;19.02;86.75;101908.16;5100959;27;20129;-61
2021/08/13 04:26:02;;;;;;;39.00;20.88;;;;;;;19.74;83.11;101899.81;5094498;27;20504;-62
2021/08/13 04:28:28;;;;;;;35.05;20.48;;;;;;;20.06;79.56;101905.81;5106197;27;20127;-62
2021/08/13 04:30:55;;;;;;;36.00;20.40;;;;;;;20.24;79.38;101904.63;5095979;27;20238;-62
2021/08/13 04:33:21;;;;;;;36.92;19.85;;;;;;;20.41;78.57;101908.75;5108425;27;20051;-63
2021/08/13 04:35:48;;;;;;;41.83;21.52;;;;;;;20.76;76.62;101924.16;5104116;27;20119;-62
2021/08/13 04:38:14;;;;;;;39.67;21.27;;;;;;;20.98;74.95;101919.72;5096832;27;20551;-62
2021/08/13 04:40:41;;;;;;;43.28;23.50;;;;;;;21.23;74.43;101913.00;5098483;27;20135;-62
2021/08/13 04:43:07;;;;;;;42.72;22.50;;;;;;;19.83;81.19;101923.69;5104905;27;20154;-61
2021/08/13 04:45:33;;;;;;;40.05;23.20;;;;;;;19.22;85.38;101926.31;5104018;27;20475;-62
2021/08/13 04:48:00;;;;;;;44.60;25.60;;;;;;;19.60;84.40;101924.53;5098521;27;20069;-62
2021/08/13 04:50:26;;;;;;;46.40;24.90;;;;;;;19.68;83.00;101918.28;5099254;27;20166;-62
2021/08/13 04:52:53;;;;;;;56.90;27.42;;;;;;;19.71;83.26;101928.59;5104027;27;20174;-62
2021/08/13 04:55:22;;;;;;;46.42;25.65;;;;;;;19.18;86.50;101928.50;5093322;27;20138;-62
2021/08/13 04:57:49;;;;;;;47.20;26.35;;;;;;;18.94;89.13;101932.13;5103744;27;20121;-62
2021/08/13 05:00:16;;;;;;;50.38;27.27;;;;;;;18.84;90.76;101926.22;5095827;27;20130;-62
2021/08/13 05:02:43;;;;;;;55.40;29.08;;;;;;;19.22;88.36;101927.13;5097174;27;20097;-61
2021/08/13 05:05:10;;;;;;;54.20;28.58;;;;;;;18.87;90.46;101926.66;5084298;28;20089;-62
2021/08/13 05:07:37;;;;;;;53.47;28.60;;;;;;;18.88;90.71;101925.69;5092651;27;20664;-61
2021/08/13 05:10:09;;;;;;;51.67;27.92;;;;;;;18.91;90.22;101927.97;5100158;27;20142;-62
2021/08/13 05:12:37;;;;;;;51.10;27.77;;;;;;;18.89;90.86;101934.47;5098051;27;20544;-62
2021/08/13 05:15:05;;;;;;;50.78;28.50;;;;;;;18.89;91.53;101935.28;5106281;27;20455;-62
2021/08/13 05:17:32;;;;;;;;;;;;;;;20.46;82.56;101934.84;5099000;27;20486;-64
2021/08/13 05:19:58;;;;;;;47.95;24.65;;;;;;;20.98;78.37;101941.03;5094695;27;20026;-63
2021/08/13 05:22:25;;;;;;;53.88;25.75;;;;;;;20.17;82.58;101954.31;5093865;27;20134;-62
2021/08/13 05:24:52;;;;;;;52.53;28.08;;;;;;;20.26;81.26;101950.56;5103774;27;20134;-62
2021/08/13 05:27:18;;;;;;;53.92;28.48;;;;;;;19.63;85.51;101955.28;5104337;27;20149;-62
2021/08/13 05:29:45;;;;;;;50.72;26.55;;;;;;;19.59;87.76;101953.97;5093962;27;20167;-62
2021/08/13 05:32:11;;;;;;;54.08;26.83;;;;;;;19.60;86.86;101955.63;5094451;27;20147;-62
2021/08/13 05:34:37;;;;;;;55.33;27.33;;;;;;;19.47;88.24;101956.22;5091458;27;20075;-62
2021/08/13 05:37:04;;;;;;;54.38;28.85;;;;;;;19.29;89.41;101964.50;5107505;27;20057;-63
2021/08/13 05:39:30;;;;;;;54.17;27.73;;;;;;;19.30;89.52;101977.59;5096189;27;20062;-63
2021/08/13 05:41:57;;;;;;;56.25;28.90;;;;;;;20.68;81.20;101965.94;5101601;27;20135;-63
2021/08/13 05:44:23;;;;;;;60.72;30.75;;;;;;;20.38;83.27;101965.06;5101030;27;20083;-62
2021/08/13 05:46:50;;;;;;;55.95;27.98;;;;;;;19.70;84.40;101967.69;5090587;27;20499;-62
2021/08/13 05:49:16;;;;;;;55.83;27.85;;;;;;;19.34;86.53;101968.28;5098522;27;20105;-62
2021/08/13 05:51:42;;;;;;;60.20;28.77;;;;;;;20.28;83.56;101965.34;5090184;28;20201;-62
2021/08/13 05:54:09;;;;;;;58.17;27.55;;;;;;;21.14;77.39;101962.97;5102294;27;20153;-63
2021/08/13 05:56:35;;;;;;;51.38;25.88;;;;;;;19.97;82.82;101968.16;5092488;27;20139;-62
2021/08/13 05:59:02;;;;;;;63.17;28.30;;;;;;;19.95;83.52;101967.50;5097541;27;20138;-62
2021/08/13 06:01:29;;;;;;;60.75;27.38;;;;;;;21.29;76.04;101959.44;5072257;28;20538;-62
2021/08/13 06:03:55;;;;;;;53.22;26.38;;;;;;;20.29;78.60;101963.53;5102235;27;20341;-62
2021/08/13 06:06:22;;;;;;;49.35;24.55;;;;;;;19.83;82.39;101958.31;5099035;28;20079;-62
2021/08/13 06:08:48;;;;;;;52.55;25.13;;;;;;;19.58;83.66;101960.28;5093307;27;20090;-62
2021/08/13 06:11:15;;;;;;;54.90;25.45;;;;;;;19.39;83.59;101959.78;5103488;27;20078;-62
2021/08/13 06:13:41;;;;;;;49.80;22.67;;;;;;;19.39;84.25;101953.63;5088641;27;20055;-62
2021/08/13 06:16:08;;;;;;;48.22;23.27;;;;;;;19.32;85.01;101964.13;5093511;28;20171;-62
2021/08/13 06:18:36;;;;;;;44.63;24.35;;;;;;;19.36;85.29;101963.59;5093799;27;20123;-62
2021/08/13 06:21:03;;;;;;;45.38;22.77;;;;;;;19.45;84.25;101953.75;5103061;27;20142;-62
2021/08/13 06:23:29;;;;;;;41.97;22.08;;;;;;;20.02;80.84;101963.13;5098415;27;20511;-63
2021/08/13 06:25:56;;;;;;;53.15;22.50;;;;;;;20.31;80.59;101956.16;5095061;27;20073;-63
2021/08/13 06:28:23;;;;;;;46.03;24.35;;;;;;;19.80;82.20;101951.50;5099555;27;20055;-62
2021/08/13 06:30:49;;;;;;;56.00;24.60;;;;;;;19.77;81.14;101959.03;5098708;27;20062;-62
2021/08/13 06:33:16;;;;;;;56.80;23.85;;;;;;;19.65;82.94;101954.09;5101754;27;20051;-63
2021/08/13 06:35:43;;;;;;;46.13;22.15;;;;;;;20.11;82.00;101954.03;5097293;27;20131;-60
2021/08/13 06:38:09;;;;;;;55.15;23.50;;;;;;;20.26;79.90;101967.34;5100367;27;20055;-62
2021/08/13 06:40:36;;;;;;;45.03;22.17;;;;;;;20.34;79.06;101959.28;5098387;27;20182;-63
2021/08/13 06:43:02;;;;;;;49.05;23.85;;;;;;;20.23;80.32;101965.06;5094749;28;20143;-61
2021/08/13 06:45:29;;;;;;;44.53;22.73;;;;;;;21.65;74.81;101963.91;5106373;27;20121;-62
2021/08/13 06:47:55;;;;;;;49.78;23.38;;;;;;;20.61;76.31;101964.19;5091305;27;20697;-61
2021/08/13 06:50:22;;;;;;;49.00;22.15;;;;;;;21.75;72.93;101955.56;5103736;27;20054;-62
2021/08/13 06:52:48;;;;;;;45.08;21.88;;;;;;;22.44;68.79;101968.19;5090278;28;20055;-62
2021/08/13 06:55:15;;;;;;;57.38;22.88;;;;;;;22.99;66.58;101969.06;5094790;28;20376;-62
2021/08/13 06:57:42;;;;;;;47.83;22.27;;;;;;;23.24;65.44;101980.03;5102840;28;20097;-62
2021/08/13 07:00:11;;;;;;;47.20;22.33;;;;;;;23.13;65.62;101974.44;5072633;28;20138;-62
2021/08/13 07:02:38;;;;;;;48.90;22.08;;;;;;;23.01;65.55;101983.06;5100117;28;20131;-62
2021/08/13 07:05:05;;;;;;;59.45;23.17;;;;;;;21.90;70.97;101986.50;5096965;28;20047;-62
2021/08/13 07:07:35;;;;;;;52.30;22.83;;;;;;;21.04;75.84;101986.44;5098096;28;20052;-62
2021/08/13 07:10:07;;;;;;;51.63;22.92;;;;;;;22.38;69.88;101983.16;5095379;28;20055;-62
2021/08/13 07:12:34;;;;;;;52.85;21.88;;;;;;;22.15;69.41;101982.56;5098366;28;20625;-61
2021/08/13 07:15:01;;;;;;;55.40;24.57;;;;;;;20.95;75.75;101979.56;5080103;28;20082;-62
2021/08/13 07:17:28;;;;;;;53.10;23.67;;;;;;;21.01;76.61;101981.50;5100202;28;20050;-62
2021/08/13 07:19:54;;;;;;;60.42;26.00;;;;;;;21.42;74.25;101991.56;5080593;28;20370;-61
2021/08/13 07:22:21;;;;;;;52.08;24.90;;;;;;;20.96;75.75;101991.09;5089280;27;20502;-61
2021/08/13 07:24:47;;;;;;;59.70;25.85;;;;;;;20.33;78.31;102005.59;5104016;28;20075;-62
2021/08/13 07:27:14;;;;;;;57.45;26.67;;;;;;;20.21;80.08;102017.72;5094925;28;20146;-61
2021/08/13 07:29:40;;;;;;;49.65;23.23;;;;;;;20.72;79.63;102020.53;5105912;28;20783;-62
2021/08/13 07:32:07;;;;;;;66.47;27.83;;;;;;;20.22;79.72;102018.53;5090302;28;20761;-62
2021/08/13 07:34:33;;;;;;;59.50;25.17;;;;;;;21.04;76.89;102004.31;5101264;28;20101;-62
2021/08/13 07:37:00;;;;;;;59.00;24.35;;;;;;;22.09;70.52;102014.41;5099266;28;20051;-62
2021/08/13 07:39:36;;;;;;;56.78;25.17;;;;;;;22.67;68.02;102018.69;5092059;28;20051;-62
2021/08/13 07:42:04;;;;;;;47.90;23.33;;;;;;;23.08;67.73;102010.66;5099669;28;20099;-61
2021/08/13 07:44:30;;;;;;;46.42;21.38;;;;;;;22.98;68.23;102020.91;5092949;28;20138;-62
2021/08/13 07:47:09;;;;;;;52.20;22.15;;;;;;;21.32;74.53;102018.56;5096409;28;20078;-61
2021/08/13 07:49:35;;;;;;;53.00;24.30;;;;;;;20.68;77.14;102021.06;5075678;28;20069;-62
2021/08/13 07:52:02;;;;;;;52.47;22.17;;;;;;;20.46;79.40;102017.44;5100372;28;20158;-63
2021/08/13 07:54:29;;;;;;;52.70;24.13;;;;;;;20.38;79.83;102013.03;5094159;28;20134;-62
2021/08/13 07:56:56;;;;;;;57.58;22.05;;;;;;;20.44;80.19;102012.28;5100313;28;20447;-59
2021/08/13 07:59:22;;;;;;;48.97;21.52;;;;;;;20.63;80.06;102026.13;5105119;28;20146;-62
2021/08/13 08:01:48;;;;;;;46.17;19.63;;;;;;;20.82;78.53;102020.25;5091361;28;20544;-61
2021/08/13 08:04:15;;;;;;;40.70;18.58;;;;;;;20.71;79.13;102021.53;5095229;28;20051;-62
2021/08/13 08:06:42;;;;;;;48.15;19.27;;;;;;;20.44;79.50;102022.13;5089642;27;20457;-62
2021/08/13 08:09:08;;;;;;;48.13;19.55;;;;;;;21.63;74.48;102030.84;5097624;27;20130;-61
2021/08/13 08:11:35;;;;;;;40.88;19.33;;;;;;;22.61;69.78;102052.41;5092234;27;20116;-62
2021/08/13 08:14:01;;;;;;;42.22;19.25;;;;;;;22.04;72.09;102054.22;5105963;27;20135;-61
2021/08/13 08:16:28;;;;;;;46.40;20.40;;;;;;;23.03;67.77;102060.47;5101050;27;20144;-62
2021/08/13 08:18:54;;;;;;;43.95;19.42;;;;;;;22.06;71.86;102059.38;5093263;27;20698;-58
2021/08/13 08:21:21;;;;;;;44.72;18.52;;;;;;;22.24;73.90;102049.06;5099876;27;20135;-62
2021/08/13 08:23:47;;;;;;;46.17;18.65;;;;;;;21.91;75.63;102036.25;5100705;27;20162;-62
2021/08/13 08:26:14;;;;;;;42.90;17.67;;;;;;;22.03;74.97;102035.72;5103498;27;20047;-62
2021/08/13 08:28:45;;;;;;;42.10;17.08;;;;;;;21.80;73.29;102051.97;5098941;27;20469;-63
2021/08/13 08:31:12;;;;;;;38.17;17.38;;;;;;;21.69;75.15;102048.75;5095326;27;20134;-62
2021/08/13 08:33:39;;;;;;;;;;;;;;;21.87;74.04;102066.19;5104582;27;20134;-61
2021/08/13 08:36:06;;;;;;;36.50;16.35;;;;;;;22.71;69.13;102074.25;5096459;27;20015;-63
2021/08/13 08:38:34;;;;;;;34.08;14.63;;;;;;;23.68;66.21;102080.44;5107233;27;20497;-62
2021/08/13 08:41:08;;;;;;;33.13;15.20;;;;;;;22.99;67.53;102084.09;5096819;27;20134;-62
2021/08/13 08:43:35;;;;;;;40.22;15.80;;;;;;;23.30;67.68;102080.13;5098538;27;20366;-62
2021/08/13 08:46:02;;;;;;;34.30;15.73;;;;;;;22.73;68.60;102057.19;5091165;27;20122;-61
2021/08/13 08:48:34;;;;;;;35.47;15.02;;;;;;;22.98;68.99;102052.19;5102966;27;20064;-62
2021/08/13 08:51:04;;;;;;;35.28;14.48;;;;;;;23.17;69.74;102050.63;5095557;27;20059;-62
2021/08/13 08:53:31;;;;;;;34.80;13.90;;;;;;;23.37;66.91;102061.44;5106159;27;20044;-62
2021/08/13 08:55:58;;;;;;;28.63;14.25;;;;;;;23.87;63.27;102067.31;5083886;28;20131;-61
2021/08/13 08:58:32;;;;;;;29.17;13.70;;;;;;;24.01;62.75;102062.78;5093782;27;20075;-62
2021/08/13 09:01:00;;;;;;;31.23;13.48;;;;;;;24.62;61.75;102067.06;5102410;27;20282;-62
2021/08/13 09:03:27;;;;;;;;;;;;;;;24.97;60.01;102074.81;5095111;27;20564;-62
2021/08/13 09:05:53;;;;;;;28.20;12.77;;;;;;;25.16;60.86;102075.78;5103238;27;20398;-62
2021/08/13 09:08:20;;;;;;;26.75;12.90;;;;;;;25.00;60.08;102077.09;5099288;27;20054;-62
2021/08/13 09:10:46;;;;;;;26.23;12.82;;;;;;;25.06;60.04;102070.88;5101160;27;20098;-62
2021/08/13 09:13:13;;;;;;;23.25;11.65;;;;;;;25.01;60.40;102071.53;5098654;27;20047;-62
2021/08/13 09:15:43;;;;;;;24.77;12.85;;;;;;;25.04;59.50;102071.06;5096188;27;20075;-61
2021/08/13 09:18:21;;;;;;;30.20;14.30;;;;;;;25.25;58.51;102075.38;5104951;27;20093;-62
2021/08/13 09:21:00;;;;;;;29.35;12.57;;;;;;;25.19;59.25;102070.00;5094556;27;20142;-61
2021/08/13 09:23:40;;;;;;;26.00;11.57;;;;;;;25.33;59.78;102076.16;5105978;27;20146;-62
2021/08/13 09:26:13;;;;;;;33.28;14.57;;;;;;;25.41;58.24;102082.09;5093833;27;20105;-62
2021/08/13 09:28:40;;;;;;;31.90;13.57;;;;;;;25.51;57.61;102080.81;5108049;27;20079;-61
2021/08/13 09:31:18;;;;;;;24.42;11.32;;;;;;;25.55;58.58;102082.84;5093589;27;20139;-63
2021/08/13 09:33:48;;;;;;;23.60;10.43;;;;;;;25.94;57.02;102097.09;5105104;27;20058;-63
2021/08/13 09:36:25;;;;;;;22.65;11.32;;;;;;;25.62;56.88;102112.38;5087084;27;20138;-63
2021/08/13 09:39:05;;;;;;;23.73;11.13;;;;;;;25.37;56.96;102114.97;5105732;27;20079;-62
2021/08/13 09:41:46;;;;;;;21.90;10.95;;;;;;;25.42;58.17;102113.31;5083274;28;20158;-62
2021/08/13 09:44:23;;;;;;;23.73;11.52;;;;;;;25.60;57.98;102115.25;5100432;27;20044;-63
2021/08/13 09:47:11;;;;;;;28.45;12.68;;;;;;;25.51;57.84;102113.88;5100896;28;20134;-63
2021/08/13 09:49:55;;;;;;;26.70;11.50;;;;;;;25.36;57.52;102116.00;5089464;27;20105;-62
2021/08/13 09:52:21;;;;;;;23.10;11.65;;;;;;;25.58;56.00;102111.13;5104166;27;20051;-62
2021/08/13 09:55:04;;;;;;;26.35;12.13;;;;;;;25.66;56.22;102113.59;5095890;27;20178;-63
2021/08/13 09:57:46;;;;;;;24.35;11.98;;;;;;;25.14;57.29;102116.25;5104745;27;20897;-63
2021/08/13 10:00:16;;;;;;;29.95;10.43;;;;;;;25.35;56.48;102119.75;5077641;28;20134;-63
2021/08/13 10:02:45;;;;;;;23.42;10.00;;;;;;;25.29;56.26;102107.97;5099957;27;20074;-63
2021/08/13 10:05:23;;;;;;;22.30;10.18;;;;;;;25.06;54.94;102109.25;5089794;27;20079;-63
2021/08/13 10:08:16;;;;;;;21.42;9.30;;;;;;;25.33;54.40;102105.69;5104671;27;20147;-62
2021/08/13 10:10:42;;;;;;;16.30;8.65;;;;;;;25.52;51.97;102120.06;5089445;27;20093;-62
2021/08/13 10:13:10;;;;;;;20.75;8.65;;;;;;;25.21;51.82;102127.81;5105201;27;20912;-61
2021/08/13 10:15:38;;;;;;;;;;;;;;;25.36;51.27;102121.38;5095133;28;20254;-62
2021/08/13 10:18:09;;;;;;;;;;;;;;;25.32;49.76;102131.72;5109338;27;19953;-63
2021/08/13 10:20:44;;;;;;;21.40;9.10;;;;;;;25.35;50.81;102120.56;5083268;28;19928;-64
2021/08/13 10:23:11;;;;;;;22.08;10.20;;;;;;;24.90;49.89;102112.44;5103814;27;20116;-63
2021/08/13 10:25:38;;;;;;;19.50;8.90;;;;;;;24.98;50.66;102108.69;5099386;27;20131;-63
2021/08/13 10:28:04;;;;;;;23.70;8.88;;;;;;;25.45;51.83;102120.09;5084385;28;20321;-63
2021/08/13 10:30:31;;;;;;;24.17;9.32;;;;;;;25.37;49.02;102109.59;5096939;27;20536;-64
2021/08/13 10:33:03;;;;;;;17.75;8.88;;;;;;;25.80;49.54;102122.38;5097679;27;20450;-63
2021/08/13 10:35:34;;;;;;;23.92;9.73;;;;;;;25.34;47.58;102118.06;5099051;27;20052;-62
2021/08/13 10:38:02;;;;;;;24.63;10.30;;;;;;;25.26;49.36;102114.59;5106016;27;20144;-60
2021/08/13 10:40:30;;;;;;;;;;;;;;;25.14;47.65;102115.44;5086994;28;20044;-63
2021/08/13 10:43:00;;;;;;;24.38;10.20;;;;;;;25.53;47.77;102121.72;5096673;28;19928;-62
2021/08/13 10:45:30;;;;;;;24.02;10.18;;;;;;;25.03;48.84;102119.59;5091730;27;20150;-62
2021/08/13 10:48:08;;;;;;;25.90;10.45;;;;;;;25.18;49.26;102125.53;5099720;28;20474;-62
2021/08/13 10:50:37;;;;;;;27.70;11.10;;;;;;;25.43;49.18;102116.81;5094172;28;20052;-63
2021/08/13 10:53:32;;;;;;;22.83;11.52;;;;;;;25.24;50.44;102115.84;5106563;27;20070;-63
2021/08/13 10:56:00;;;;;;;26.92;11.20;;;;;;;25.29;49.00;102121.41;5083833;28;20071;-62
2021/08/13 10:58:35;;;;;;;22.40;9.82;;;;;;;25.44;49.07;102118.44;5099906;27;20051;-62
2021/08/13 11:01:19;;;;;;;26.00;9.55;;;;;;;25.34;48.06;102121.56;5094459;28;20142;-63
2021/08/13 11:03:52;;;;;;;22.02;9.63;;;;;;;25.29;48.29;102123.28;5098511;28;20105;-63
2021/08/13 11:06:39;;;;;;;24.40;9.77;;;;;;;25.17;48.91;102129.28;5097992;28;20055;-63
2021/08/13 11:09:29;;;;;;;23.90;8.55;;;;;;;25.52;49.41;102139.69;5086105;28;20071;-63
2021/08/13 11:11:56;;;;;;;18.17;8.98;;;;;;;25.38;48.47;102132.72;5098087;28;20060;-63
2021/08/13 11:14:28;;;;;;;19.23;8.37;;;;;;;25.30;48.49;102139.16;5094806;28;20179;-63
2021/08/13 11:16:56;;;;;;;25.92;8.52;;;;;;;25.39;49.01;102129.84;5103759;28;20051;-63
2021/08/13 11:19:23;;;;;;;;;;;;;;;25.43;49.10;102133.72;5094331;27;20184;-63